Time;durP1;ratioP1;P1;durP2;ratioP2;P2;SDS_P1;SDS_P2;PMS_P1;PMS_P2;Temp;Humidity;BMP_temperature;BMP_pressure;BME280_temperature;BME280_humidity;BME280_pressure;Samples;Min_cycle;Max_cycle;Signal;HPM_P1;HPM_P2
2022/10/20 00:00:56;;;;;;;;;;;13.50;99.90;;;;;;5012617;28;20348;-69
2022/10/20 00:03:22;;;;;;;;;;;13.50;99.90;;;;;;5014439;28;19906;-69
2022/10/20 00:05:47;;;;;;;;;;;13.60;99.90;;;;;;5014319;28;20278;-69
2022/10/20 00:08:13;;;;;;;;;;;13.60;99.90;;;;;;5013940;28;19913;-68
2022/10/20 00:10:39;;;;;;;;;;;13.60;99.90;;;;;;5012965;28;20329;-68
2022/10/20 00:13:04;;;;;;;;;;;13.60;99.90;;;;;;5015276;28;20345;-70
2022/10/20 00:15:29;;;;;;;;;;;13.60;99.90;;;;;;5014664;28;19906;-70
2022/10/20 00:17:55;;;;;;;;;;;13.60;99.90;;;;;;5014769;28;19972;-70
2022/10/20 00:20:20;;;;;;;;;;;13.70;99.90;;;;;;5014766;28;20001;-70
2022/10/20 00:22:46;;;;;;;;;;;13.60;99.90;;;;;;5015253;28;19905;-70
2022/10/20 00:25:11;;;;;;;;;;;13.70;99.90;;;;;;5030503;28;20354;-70
2022/10/20 00:27:37;;;;;;;;;;;13.60;99.90;;;;;;5014060;28;19928;-70
2022/10/20 00:30:02;;;;;;;;;;;13.60;99.90;;;;;;5013108;28;19919;-70
2022/10/20 00:32:29;;;;;;;;;;;13.60;99.90;;;;;;5014551;28;20036;-70
2022/10/20 00:34:54;;;;;;;;;;;13.60;99.90;;;;;;5015167;28;19913;-70
2022/10/20 00:37:20;;;;;;;;;;;13.60;99.90;;;;;;5014741;28;19905;-69
2022/10/20 00:39:45;;;;;;;;;;;13.60;99.90;;;;;;5014897;28;19917;-70
2022/10/20 00:42:15;;;;;;;;;;;13.70;99.90;;;;;;5014721;28;19952;-69
2022/10/20 00:44:46;;;;;;;;;;;13.60;99.90;;;;;;5014959;28;20288;-69
2022/10/20 00:47:13;;;;;;;;;;;13.60;99.90;;;;;;5015271;28;19905;-69
2022/10/20 00:49:39;;;;;;;;;;;13.60;99.90;;;;;;5014193;28;19910;-69
2022/10/20 00:52:04;;;;;;;;;;;13.60;99.90;;;;;;5029664;28;19905;-68
2022/10/20 00:54:30;;;;;;;;;;;13.60;99.90;;;;;;5012993;28;19912;-69
2022/10/20 00:56:57;;;;;;;;;;;13.50;99.90;;;;;;5012717;28;19954;-68
2022/10/20 00:59:26;;;;;;;;;;;13.60;99.90;;;;;;5029009;28;19996;-69
2022/10/20 01:01:52;;;;;;;;;;;13.60;99.90;;;;;;5012883;28;19912;-70
2022/10/20 01:04:18;;;;;;;;;;;13.60;99.90;;;;;;5014051;28;19910;-69
2022/10/20 01:06:43;;;;;;;;;;;13.60;99.90;;;;;;5012486;28;20259;-69
2022/10/20 01:09:09;;;;;;;;;;;13.60;99.90;;;;;;5013929;28;19905;-70
2022/10/20 01:11:50;;;;;;;;;;;13.60;99.90;;;;;;5032541;28;20013;-69
2022/10/20 01:14:28;;;;;;;;;;;13.60;99.90;;;;;;5017183;28;19905;-71
2022/10/20 01:17:00;;;;;;;;;;;13.60;99.90;;;;;;5017764;28;19952;-70
2022/10/20 01:19:28;;;;;;;;;;;13.60;99.90;;;;;;5016819;28;19909;-70
2022/10/20 01:21:54;;;;;;;;;;;13.50;99.90;;;;;;5015784;28;19967;-69
2022/10/20 01:24:38;;;;;;;;;;;13.50;99.90;;;;;;5015756;28;20362;-68
2022/10/20 01:27:12;;;;;;;;;;;13.50;99.90;;;;;;5016971;28;19959;-69
2022/10/20 01:29:50;;;;;;;;;;;13.50;99.90;;;;;;5016517;28;19921;-70
2022/10/20 01:32:42;;;;;;;;;;;13.50;99.90;;;;;;5016881;28;19905;-70
2022/10/20 01:35:30;;;;;;;;;;;13.40;99.90;;;;;;4998586;28;20370;-69
2022/10/20 01:38:03;;;;;;;;;;;13.40;99.90;;;;;;5006990;28;19916;-69
2022/10/20 01:40:35;;;;;;;;;;;13.40;99.90;;;;;;4998696;28;19975;-69
2022/10/20 01:43:02;;;;;;;;;;;13.40;99.90;;;;;;5015438;28;20281;-69
2022/10/20 01:45:30;;;;;;;;;;;13.30;99.90;;;;;;5015937;28;20350;-69
2022/10/20 01:47:56;;;;;;;;;;;13.40;99.90;;;;;;5014946;28;19912;-69
2022/10/20 01:50:22;;;;;;;;;;;13.40;99.90;;;;;;5015302;28;19997;-69
2022/10/20 01:52:48;;;;;;;;;;;13.30;99.90;;;;;;5014847;28;19917;-68
2022/10/20 01:55:14;;;;;;;;;;;13.30;99.90;;;;;;5015434;28;19910;-69
2022/10/20 01:57:59;;;;;;;;;;;13.30;99.90;;;;;;5015026;28;19951;-69
2022/10/20 02:00:24;;;;;;;;;;;13.30;99.90;;;;;;5014796;28;20339;-69
2022/10/20 02:03:08;;;;;;;;;;;13.30;99.90;;;;;;5014894;28;19941;-68
2022/10/20 02:05:42;;;;;;;;;;;13.20;99.90;;;;;;4998441;28;19909;-69
2022/10/20 02:08:26;;;;;;;;;;;13.20;99.90;;;;;;5014916;28;19913;-70
2022/10/20 02:10:55;;;;;;;;;;;13.30;99.90;;;;;;5015519;28;20358;-69
2022/10/20 02:13:20;;;;;;;;;;;13.30;99.90;;;;;;5017211;28;19905;-70
2022/10/20 02:15:49;;;;;;;;;;;13.40;99.90;;;;;;5032820;28;19956;-70
2022/10/20 02:18:17;;;;;;;;;;;13.30;99.90;;;;;;5016986;28;19909;-69
2022/10/20 02:20:46;;;;;;;;;;;13.40;99.90;;;;;;5017178;28;19947;-70
2022/10/20 02:23:11;;;;;;;;;;;13.40;99.90;;;;;;5018338;28;20278;-70
2022/10/20 02:25:38;;;;;;;;;;;13.50;99.90;;;;;;5019326;28;19905;-68
2022/10/20 02:28:04;;;;;;;;;;;13.50;99.90;;;;;;5017100;28;20015;-70
2022/10/20 02:30:30;;;;;;;;;;;13.40;99.90;;;;;;5016977;28;19949;-70
2022/10/20 02:32:56;;;;;;;;;;;13.40;99.90;;;;;;5018490;28;19905;-70
2022/10/20 02:35:24;;;;;;;;;;;13.40;99.90;;;;;;5017555;28;19905;-69
2022/10/20 02:37:50;;;;;;;;;;;13.40;99.90;;;;;;5017993;28;19910;-70
2022/10/20 02:40:16;;;;;;;;;;;13.40;99.90;;;;;;5017408;28;19909;-69
2022/10/20 02:42:42;;;;;;;;;;;13.40;99.90;;;;;;5018167;28;19906;-69
2022/10/20 02:45:08;;;;;;;;;;;13.40;99.90;;;;;;5016483;28;19973;-70
2022/10/20 02:47:34;;;;;;;;;;;13.40;99.90;;;;;;5017609;28;19906;-68
2022/10/20 02:50:00;;;;;;;;;;;13.40;99.90;;;;;;5031286;28;20381;-68
2022/10/20 02:52:25;;;;;;;;;;;13.50;99.90;;;;;;5015977;28;19912;-68
2022/10/20 02:54:51;;;;;;;;;;;13.50;99.90;;;;;;5030886;28;20266;-68
2022/10/20 02:57:17;;;;;;;;;;;13.40;99.90;;;;;;5015612;28;19912;-69
2022/10/20 02:59:42;;;;;;;;;;;13.40;99.90;;;;;;5030272;28;19921;-70
2022/10/20 03:02:07;;;;;;;;;;;13.40;99.90;;;;;;5014679;28;20389;-70
2022/10/20 03:04:33;;;;;;;;;;;13.30;99.90;;;;;;5015246;28;20362;-70
2022/10/20 03:06:58;;;;;;;;;;;13.30;99.90;;;;;;5014873;28;19960;-70
2022/10/20 03:09:24;;;;;;;;;;;13.30;99.90;;;;;;5014849;28;19909;-71
2022/10/20 03:11:49;;;;;;;;;;;13.30;99.90;;;;;;5015136;28;19905;-68
2022/10/20 03:14:15;;;;;;;;;;;13.40;99.90;;;;;;5029597;28;19905;-70
2022/10/20 03:16:40;;;;;;;;;;;13.40;99.90;;;;;;5014737;28;19905;-70
2022/10/20 03:19:06;;;;;;;;;;;13.40;99.90;;;;;;5013657;28;19959;-70
2022/10/20 03:21:31;;;;;;;;;;;13.40;99.90;;;;;;5029658;28;19906;-69
2022/10/20 03:23:56;;;;;;;;;;;13.30;99.90;;;;;;5014709;28;19960;-70
2022/10/20 03:26:22;;;;;;;;;;;13.20;99.90;;;;;;5014479;28;19906;-70
2022/10/20 03:28:47;;;;;;;;;;;13.10;99.90;;;;;;5014414;28;20297;-70
2022/10/20 03:31:13;;;;;;;;;;;13.20;99.90;;;;;;5014922;28;20439;-70
2022/10/20 03:33:38;;;;;;;;;;;13.20;99.90;;;;;;5014235;28;19955;-70
2022/10/20 03:36:04;;;;;;;;;;;13.10;99.90;;;;;;5014388;28;19906;-70
2022/10/20 03:38:30;;;;;;;;;;;13.10;99.90;;;;;;5015398;28;19948;-71
2022/10/20 03:40:55;;;;;;;;;;;13.00;99.90;;;;;;5016821;28;19940;-71
2022/10/20 03:43:21;;;;;;;;;;;13.10;99.90;;;;;;5018123;28;20408;-71
2022/10/20 03:45:46;;;;;;;;;;;13.20;99.90;;;;;;5016301;28;20279;-70
2022/10/20 03:48:12;;;;;;;;;;;13.20;99.90;;;;;;5015771;28;20266;-70
2022/10/20 03:50:38;;;;;;;;;;;13.20;99.90;;;;;;5015730;28;19909;-71
2022/10/20 03:53:03;;;;;;;;;;;13.10;99.90;;;;;;5016803;28;19956;-72
2022/10/20 03:55:29;;;;;;;;;;;13.00;99.90;;;;;;5016268;28;19905;-70
2022/10/20 03:57:54;;;;;;;;;;;13.10;99.90;;;;;;5018525;28;20358;-72
2022/10/20 04:00:20;;;;;;;;;;;13.20;99.90;;;;;;5018048;28;19905;-71
2022/10/20 04:02:46;;;;;;;;;;;13.10;99.90;;;;;;5029475;28;20355;-69
2022/10/20 04:05:18;;;;;;;;;;;13.20;99.90;;;;;;5014241;28;19959;-70
2022/10/20 04:07:43;;;;;;;;;;;13.20;99.90;;;;;;5013833;28;19912;-69
2022/10/20 04:10:10;;;;;;;;;;;13.30;99.90;;;;;;5029097;28;19905;-69
2022/10/20 04:12:35;;;;;;;;;;;13.20;99.90;;;;;;5012779;28;20011;-70
2022/10/20 04:15:01;;;;;;;;;;;13.20;99.90;;;;;;5013956;28;19966;-70
2022/10/20 04:17:26;;;;;;;;;;;13.20;99.90;;;;;;5013959;28;19906;-70
2022/10/20 04:19:52;;;;;;;;;;;13.10;99.90;;;;;;5012947;28;19905;-72
2022/10/20 04:22:17;;;;;;;;;;;13.10;99.90;;;;;;5012703;28;19905;-73
2022/10/20 04:24:42;;;;;;;;;;;13.10;99.90;;;;;;5014179;28;19909;-73
2022/10/20 04:27:08;;;;;;;;;;;13.00;99.90;;;;;;5014416;28;19996;-73
2022/10/20 04:29:33;;;;;;;;;;;13.00;99.90;;;;;;5047618;23;19925;-70
2022/10/20 04:31:59;;;;;;;;;;;12.90;99.90;;;;;;5012893;28;19906;-69
2022/10/20 04:34:24;;;;;;;;;;;12.90;99.90;;;;;;4994853;28;20024;-66
2022/10/20 04:36:50;;;;;;;;;;;12.80;99.90;;;;;;4999936;28;19917;-67
2022/10/20 04:39:15;;;;;;;;;;;12.90;99.90;;;;;;5002153;28;19916;-68
2022/10/20 04:41:41;;;;;;;;;;;12.90;99.90;;;;;;5007763;28;19968;-67
2022/10/20 04:44:06;;;;;;;;;;;13.00;99.90;;;;;;5015330;28;20298;-69
2022/10/20 04:46:32;;;;;;;;;;;13.10;99.90;;;;;;5017259;28;19905;-68
2022/10/20 04:48:57;;;;;;;;;;;13.10;99.90;;;;;;5018025;28;19906;-70
2022/10/20 04:51:23;;;;;;;;;;;13.10;99.90;;;;;;5000029;28;19909;-70
2022/10/20 04:53:48;;;;;;;;;;;13.10;99.90;;;;;;5000019;28;19912;-70
2022/10/20 04:56:19;;;;;;;;;;;13.00;99.90;;;;;;5017518;28;19911;-70
2022/10/20 04:58:47;;;;;;;;;;;13.00;99.90;;;;;;5017944;28;19956;-69
2022/10/20 05:01:12;;;;;;;;;;;12.90;99.90;;;;;;5017100;28;19955;-69
2022/10/20 05:03:38;;;;;;;;;;;13.00;99.90;;;;;;5017143;28;19945;-68
2022/10/20 05:06:18;;;;;;;;;;;13.10;99.90;;;;;;5018200;28;19932;-69
2022/10/20 05:08:45;;;;;;;;;;;13.20;99.90;;;;;;5019391;28;19905;-69
2022/10/20 05:11:11;;;;;;;;;;;13.20;99.90;;;;;;5021089;28;19905;-69
2022/10/20 05:13:37;;;;;;;;;;;13.20;99.90;;;;;;5016741;28;20266;-70
2022/10/20 05:16:03;;;;;;;;;;;13.10;99.90;;;;;;4999574;28;19925;-67
2022/10/20 05:18:28;;;;;;;;;;;13.00;99.90;;;;;;4999013;28;20004;-67
2022/10/20 05:20:54;;;;;;;;;;;13.00;99.90;;;;;;5016985;28;20431;-67
2022/10/20 05:23:20;;;;;;;;;;;12.90;99.90;;;;;;4999280;28;20271;-67
2022/10/20 05:25:45;;;;;;;;;;;13.00;99.90;;;;;;4999394;28;19992;-66
2022/10/20 05:28:11;;;;;;;;;;;12.90;99.90;;;;;;5016544;28;20008;-64
2022/10/20 05:30:36;;;;;;;;;;;12.80;99.90;;;;;;5015927;28;20354;-67
2022/10/20 05:33:02;;;;;;;;;;;12.80;99.90;;;;;;5016193;28;19928;-68
2022/10/20 05:35:29;;;;;;;;;;;12.80;99.90;;;;;;5016458;28;20380;-63
2022/10/20 05:37:55;;;;;;;;;;;12.80;99.90;;;;;;5016499;28;19928;-63
2022/10/20 05:40:21;;;;;;;;;;;12.80;99.90;;;;;;5015944;28;19909;-63
2022/10/20 05:42:46;;;;;;;;;;;12.80;99.90;;;;;;5016227;28;20306;-65
2022/10/20 05:45:12;;;;;;;;;;;13.00;99.90;;;;;;5015724;28;19971;-68
2022/10/20 05:47:37;;;;;;;;;;;12.90;99.90;;;;;;5016415;28;19905;-67
2022/10/20 05:50:03;;;;;;;;;;;12.90;99.90;;;;;;5016059;28;19979;-68
2022/10/20 05:52:28;;;;;;;;;;;12.90;99.90;;;;;;4998245;28;19905;-67
2022/10/20 05:54:54;;;;;;;;;;;12.90;99.90;;;;;;4997834;28;20305;-67
2022/10/20 05:57:19;;;;;;;;;;;13.00;99.90;;;;;;5015637;28;19906;-66
2022/10/20 05:59:44;;;;;;;;;;;13.00;99.90;;;;;;5015669;28;19956;-66
2022/10/20 06:02:10;;;;;;;;;;;13.00;99.90;;;;;;5015471;28;19917;-67
2022/10/20 06:04:36;;;;;;;;;;;12.90;99.90;;;;;;5015766;28;20442;-67
2022/10/20 06:07:02;;;;;;;;;;;12.80;99.90;;;;;;4998226;28;19905;-66
2022/10/20 06:09:27;;;;;;;;;;;12.70;99.90;;;;;;5015395;28;19912;-63
2022/10/20 06:11:53;;;;;;;;;;;12.80;99.90;;;;;;5015609;28;19910;-62
2022/10/20 06:14:21;;;;;;;;;;;12.80;99.90;;;;;;5015790;28;19909;-61
2022/10/20 06:16:48;;;;;;;;;;;12.80;99.90;;;;;;4997491;28;19909;-63
2022/10/20 06:19:14;;;;;;;;;;;12.90;99.90;;;;;;5015123;28;20362;-63
2022/10/20 06:21:39;;;;;;;;;;;12.90;99.90;;;;;;5015315;28;19905;-63
2022/10/20 06:24:05;;;;;;;;;;;12.90;99.90;;;;;;5015307;28;19905;-64
2022/10/20 06:26:37;;;;;;;;;;;12.90;99.90;;;;;;4997628;28;19987;-63
2022/10/20 06:29:04;;;;;;;;;;;12.90;99.90;;;;;;4997383;28;20007;-63
2022/10/20 06:31:30;;;;;;;;;;;12.90;99.90;;;;;;5014666;28;19913;-62
2022/10/20 06:33:57;;;;;;;;;;;12.90;99.90;;;;;;5015207;28;19906;-62
2022/10/20 06:36:23;;;;;;;;;;;12.70;99.90;;;;;;5015295;28;19939;-63
2022/10/20 06:38:51;;;;;;;;;;;12.70;99.90;;;;;;5014926;28;20263;-62
2022/10/20 06:41:17;;;;;;;;;;;12.80;99.90;;;;;;5015347;28;20380;-62
2022/10/20 06:43:43;;;;;;;;;;;12.90;99.90;;;;;;5014933;28;19909;-62
2022/10/20 06:46:10;;;;;;;;;;;12.80;99.90;;;;;;5014675;28;19988;-62
2022/10/20 06:48:36;;;;;;;;;;;12.70;99.90;;;;;;5015102;28;19909;-63
2022/10/20 06:51:06;;;;;;;;;;;12.70;99.90;;;;;;4997163;28;19955;-62
2022/10/20 06:53:33;;;;;;;;;;;12.70;99.90;;;;;;5014812;28;19905;-64
2022/10/20 06:56:05;;;;;;;;;;;12.80;99.90;;;;;;4997961;28;20018;-63
2022/10/20 06:58:31;;;;;;;;;;;12.90;99.90;;;;;;5014533;28;20342;-61
2022/10/20 07:01:01;;;;;;;;;;;13.00;99.90;;;;;;5014324;28;19906;-62
2022/10/20 07:03:27;;;;;;;;;;;13.10;99.90;;;;;;5014878;28;19905;-63
2022/10/20 07:05:53;;;;;;;;;;;13.20;99.90;;;;;;4997324;28;20358;-64
2022/10/20 07:08:18;;;;;;;;;;;13.40;99.90;;;;;;5013674;28;19912;-63
2022/10/20 07:10:44;;;;;;;;;;;13.40;99.90;;;;;;5014744;28;20376;-63
2022/10/20 07:13:09;;;;;;;;;;;13.40;99.90;;;;;;5014575;28;19996;-62
2022/10/20 07:15:35;;;;;;;;;;;13.30;99.90;;;;;;5014464;28;19906;-63
2022/10/20 07:18:00;;;;;;;;;;;13.20;99.90;;;;;;4996670;28;19909;-63
2022/10/20 07:20:25;;;;;;;;;;;13.20;99.90;;;;;;5014387;28;19905;-62
2022/10/20 07:22:51;;;;;;;;;;;13.30;99.90;;;;;;5016384;28;20358;-64
2022/10/20 07:25:18;;;;;;;;;;;13.50;99.90;;;;;;5017799;28;20365;-62
2022/10/20 07:27:44;;;;;;;;;;;13.40;99.90;;;;;;5014271;28;19937;-62
2022/10/20 07:30:09;;;;;;;;;;;13.20;99.90;;;;;;5014090;28;19924;-61
2022/10/20 07:32:35;;;;;;;;;;;13.20;99.90;;;;;;5013926;28;19905;-62
2022/10/20 07:35:00;;;;;;;;;;;13.30;99.90;;;;;;5014606;28;19905;-62
2022/10/20 07:37:26;;;;;;;;;;;13.40;99.90;;;;;;4996242;28;19910;-61
2022/10/20 07:39:51;;;;;;;;;;;13.40;99.90;;;;;;4996097;28;19909;-62
2022/10/20 07:42:17;;;;;;;;;;;13.40;99.90;;;;;;5014247;28;19992;-63
2022/10/20 07:44:42;;;;;;;;;;;13.40;99.90;;;;;;5014055;28;19905;-62
2022/10/20 07:47:08;;;;;;;;;;;13.40;99.90;;;;;;5013623;28;19905;-63
2022/10/20 07:49:33;;;;;;;;;;;13.40;99.90;;;;;;5013910;28;19910;-64
2022/10/20 07:51:59;;;;;;;;;;;13.50;99.90;;;;;;5013862;28;19912;-63
2022/10/20 07:54:24;;;;;;;;;;;13.60;99.90;;;;;;4995969;28;19910;-63
2022/10/20 07:56:50;;;;;;;;;;;13.60;99.90;;;;;;4996112;28;20377;-61
2022/10/20 07:59:15;;;;;;;;;;;13.80;99.90;;;;;;5013529;28;20380;-61
2022/10/20 08:01:41;;;;;;;;;;;13.90;99.90;;;;;;5014027;28;19951;-63
2022/10/20 08:04:06;;;;;;;;;;;14.00;99.90;;;;;;5014219;28;19911;-62
2022/10/20 08:06:32;;;;;;;;;;;14.10;99.90;;;;;;5014507;28;20330;-63
2022/10/20 08:08:58;;;;;;;;;;;14.10;99.90;;;;;;4996485;28;19906;-63
2022/10/20 08:11:24;;;;;;;;;;;14.20;99.90;;;;;;4995794;28;19912;-63
2022/10/20 08:13:50;;;;;;;;;;;14.20;99.90;;;;;;5013650;28;19906;-63
2022/10/20 08:16:17;;;;;;;;;;;14.20;99.90;;;;;;5013516;28;19967;-62
2022/10/20 08:18:42;;;;;;;;;;;14.10;99.90;;;;;;5014227;28;20392;-64
2022/10/20 08:21:09;;;;;;;;;;;14.20;99.90;;;;;;5017391;28;19906;-63
2022/10/20 08:23:39;;;;;;;;;;;14.40;99.90;;;;;;5017380;28;20359;-63
2022/10/20 08:26:04;;;;;;;;;;;14.70;99.90;;;;;;5017567;28;19906;-62
2022/10/20 08:28:30;;;;;;;;;;;14.50;99.90;;;;;;5017396;28;20273;-64
2022/10/20 08:30:55;;;;;;;;;;;14.60;99.90;;;;;;5017099;28;19964;-63
2022/10/20 08:33:21;;;;;;;;;;;14.60;99.90;;;;;;5017504;28;19913;-63
2022/10/20 08:35:46;;;;;;;;;;;14.70;99.90;;;;;;4999602;28;19975;-63
2022/10/20 08:38:12;;;;;;;;;;;14.70;99.90;;;;;;5017317;28;19916;-63
2022/10/20 08:40:39;;;;;;;;;;;14.90;99.90;;;;;;5017112;28;19958;-63
2022/10/20 08:43:05;;;;;;;;;;;15.20;99.90;;;;;;5017239;28;20005;-62
2022/10/20 08:45:31;;;;;;;;;;;15.60;99.90;;;;;;4999320;28;20299;-63
2022/10/20 08:47:57;;;;;;;;;;;15.70;99.90;;;;;;5017296;28;19929;-62
2022/10/20 08:50:26;;;;;;;;;;;15.80;99.90;;;;;;5017049;28;19909;-63
2022/10/20 08:52:53;;;;;;;;;;;15.90;99.90;;;;;;5016805;28;19909;-63
2022/10/20 08:55:25;;;;;;;;;;;16.10;99.90;;;;;;4999296;28;20219;-63
2022/10/20 08:57:53;;;;;;;;;;;16.20;99.90;;;;;;5016964;28;19990;-63
2022/10/20 09:00:20;;;;;;;;;;;16.30;99.90;;;;;;4999077;28;19917;-62
2022/10/20 09:02:49;;;;;;;;;;;16.40;99.90;;;;;;5016423;28;19905;-62
2022/10/20 09:05:21;;;;;;;;;;;16.50;99.90;;;;;;5016584;28;19921;-62
2022/10/20 09:07:48;;;;;;;;;;;17.00;99.90;;;;;;4999068;28;20040;-63
2022/10/20 09:10:23;;;;;;;;;;;17.40;99.90;;;;;;5016611;28;20289;-63
2022/10/20 09:12:49;;;;;;;;;;;17.40;99.90;;;;;;5016944;28;20441;-63
2022/10/20 09:15:15;;;;;;;;;;;17.00;99.90;;;;;;5016325;28;19996;-63
2022/10/20 09:17:42;;;;;;;;;;;16.40;99.90;;;;;;5016039;28;20286;-63
2022/10/20 09:20:16;;;;;;;;;;;16.20;99.90;;;;;;4998908;28;19905;-63
2022/10/20 09:22:41;;;;;;;;;;;15.90;99.90;;;;;;4998767;28;19913;-63
2022/10/20 09:25:11;;;;;;;;;;;16.20;99.90;;;;;;5016237;28;19905;-63
2022/10/20 09:27:40;;;;;;;;;;;16.20;99.90;;;;;;4998658;28;19906;-61
2022/10/20 09:30:13;;;;;;;;;;;16.20;99.90;;;;;;5014931;28;19920;-63
2022/10/20 09:32:39;;;;;;;;;;;16.20;99.90;;;;;;4998323;28;19912;-63
2022/10/20 09:35:19;;;;;;;;;;;16.30;99.90;;;;;;4998523;28;19906;-63
2022/10/20 09:37:51;;;;;;;;;;;16.20;99.90;;;;;;5015953;28;20254;-63
2022/10/20 09:40:17;;;;;;;;;;;15.70;99.90;;;;;;5016406;28;19913;-63
2022/10/20 09:42:45;;;;;;;;;;;15.70;99.90;;;;;;5016355;28;19906;-63
2022/10/20 09:45:14;;;;;;;;;;;15.90;99.90;;;;;;5016436;28;20334;-63
2022/10/20 09:47:41;;;;;;;;;;;15.90;99.90;;;;;;4998135;28;19936;-63
2022/10/20 09:50:07;;;;;;;;;;;15.70;99.90;;;;;;5015717;28;19905;-63
2022/10/20 09:52:46;;;;;;;;;;;15.80;99.90;;;;;;4998198;28;20015;-62
2022/10/20 09:55:23;;;;;;;;;;;15.90;99.90;;;;;;5016073;28;20446;-63
2022/10/20 09:57:49;;;;;;;;;;;15.70;99.90;;;;;;5015716;28;19910;-63
2022/10/20 10:00:26;;;;;;;;;;;16.00;99.90;;;;;;5015570;28;20321;-59
2022/10/20 10:03:06;;;;;;;;;;;15.70;99.90;;;;;;4997691;28;19967;-63
2022/10/20 10:05:32;;;;;;;;;;;15.90;99.90;;;;;;5015458;28;20316;-62
2022/10/20 10:07:58;;;;;;;;;;;16.30;99.90;;;;;;5015531;28;19906;-63
2022/10/20 10:10:26;;;;;;;;;;;16.70;99.90;;;;;;5015523;28;20361;-63
2022/10/20 10:12:55;;;;;;;;;;;16.90;99.90;;;;;;5015430;28;19932;-64
2022/10/20 10:15:21;;;;;;;;;;;17.00;99.90;;;;;;5015387;28;19956;-63
2022/10/20 10:17:46;;;;;;;;;;;16.50;99.90;;;;;;5015130;28;19909;-63
2022/10/20 10:20:12;;;;;;;;;;;16.40;99.90;;;;;;5015380;28;19905;-63
2022/10/20 10:22:38;;;;;;;;;;;16.50;99.90;;;;;;5015325;28;19905;-63
2022/10/20 10:25:04;;;;;;;;;;;17.00;99.90;;;;;;5015372;28;20316;-62
2022/10/20 10:27:31;;;;;;;;;;;17.10;99.90;;;;;;4998471;28;19905;-62
2022/10/20 10:30:15;;;;;;;;;;;17.00;99.90;;;;;;5015670;28;19917;-69
2022/10/20 10:32:44;;;;;;;;;;;16.90;99.90;;;;;;5016334;28;19906;-68
2022/10/20 10:35:24;;;;;;;;;;;16.60;99.90;;;;;;5016145;28;19948;-68
2022/10/20 10:37:50;;;;;;;;;;;16.20;99.90;;;;;;5015117;28;19948;-69
2022/10/20 10:40:42;;;;;;;;;;;16.00;99.90;;;;;;5015165;28;19905;-69
2022/10/20 10:43:23;;;;;;;;;;;16.00;99.90;;;;;;4992119;28;19959;-69
2022/10/20 10:45:56;;;;;;;;;;;16.20;99.90;;;;;;4997318;28;20004;-68
2022/10/20 10:48:24;;;;;;;;;;;16.10;99.90;;;;;;5015376;28;19928;-68
2022/10/20 10:50:55;;;;;;;;;;;15.90;99.90;;;;;;5015858;28;19909;-69
2022/10/20 10:53:28;;;;;;;;;;;15.70;99.90;;;;;;5015105;28;19905;-69
2022/10/20 10:56:02;;;;;;;;;;;15.40;99.90;;;;;;4997092;28;20362;-69
2022/10/20 10:58:35;;;;;;;;;;;15.40;99.90;;;;;;4996918;28;20024;-68
2022/10/20 11:01:16;;;;;;;;;;;15.60;99.90;;;;;;5014191;28;19920;-68
2022/10/20 11:04:10;;;;;;;;;;;15.90;99.90;;;;;;5014680;28;19917;-68
2022/10/20 11:06:53;;;;;;;;;;;16.00;99.90;;;;;;5014853;28;19905;-69
2022/10/20 11:09:21;;;;;;;;;;;15.90;99.90;;;;;;5014640;28;19956;-68
2022/10/20 11:11:51;;;;;;;;;;;15.80;99.90;;;;;;4996941;28;20009;-68
2022/10/20 11:14:19;;;;;;;;;;;16.10;99.90;;;;;;5014520;28;19906;-68
2022/10/20 11:17:08;;;;;;;;;;;16.10;99.90;;;;;;5014579;28;19905;-69
2022/10/20 11:20:03;;;;;;;;;;;16.10;99.90;;;;;;5013959;28;19919;-69
2022/10/20 11:22:47;;;;;;;;;;;16.00;99.90;;;;;;4953925;29;19913;-69
2022/10/20 11:25:22;;;;;;;;;;;16.00;99.90;;;;;;4937670;29;19958;-68
2022/10/20 11:27:48;;;;;;;;;;;16.10;99.90;;;;;;4954549;29;20347;-68
2022/10/20 11:30:17;;;;;;;;;;;16.20;99.90;;;;;;4953553;28;19957;-67
2022/10/20 11:32:48;;;;;;;;;;;16.30;99.90;;;;;;4953481;29;19906;-67
2022/10/20 11:35:30;;;;;;;;;;;16.50;99.90;;;;;;4954013;29;20012;-68
2022/10/20 11:38:11;;;;;;;;;;;16.70;99.90;;;;;;4954035;29;19925;-68
2022/10/20 11:40:42;;;;;;;;;;;16.40;99.90;;;;;;4953580;28;19907;-68
2022/10/20 11:43:17;;;;;;;;;;;16.20;99.90;;;;;;4953683;29;19921;-68
2022/10/20 11:45:53;;;;;;;;;;;16.40;99.90;;;;;;4953869;29;20402;-68
2022/10/20 11:48:33;;;;;;;;;;;16.50;99.90;;;;;;4953378;29;19906;-68
2022/10/20 11:51:01;;;;;;;;;;;16.60;99.90;;;;;;4954022;28;19988;-68
2022/10/20 11:53:35;;;;;;;;;;;16.60;99.90;;;;;;4937050;29;19907;-68
2022/10/20 11:56:14;;;;;;;;;;;16.50;99.90;;;;;;4938521;29;19907;-67
2022/10/20 11:58:39;;;;;;;;;;;16.50;99.90;;;;;;4971621;28;19909;-67
2022/10/20 12:01:23;;;;;;;;;;;16.60;99.90;;;;;;5005341;28;19905;-67
2022/10/20 12:03:57;;;;;;;;;;;16.50;99.90;;;;;;5013984;28;19949;-68
2022/10/20 12:06:36;;;;;;;;;;;16.40;99.90;;;;;;5014390;28;19905;-68
2022/10/20 12:09:05;;;;;;;;;;;16.50;99.90;;;;;;5013996;28;19909;-68
2022/10/20 12:11:37;;;;;;;;;;;16.60;99.90;;;;;;5013628;28;19948;-68
2022/10/20 12:14:16;;;;;;;;;;;16.40;99.90;;;;;;5013767;28;19912;-68
2022/10/20 12:16:50;;;;;;;;;;;16.20;99.90;;;;;;5013705;28;19913;-68
2022/10/20 12:19:18;;;;;;;;;;;16.40;99.90;;;;;;5013695;28;19945;-67
2022/10/20 12:21:55;;;;;;;;;;;16.60;99.90;;;;;;5014141;28;20397;-67
2022/10/20 12:24:31;;;;;;;;;;;16.70;99.90;;;;;;4995882;28;19909;-67
2022/10/20 12:27:02;;;;;;;;;;;16.70;99.90;;;;;;5013943;28;19905;-67
2022/10/20 12:29:30;;;;;;;;;;;16.80;99.90;;;;;;5013473;28;19913;-68
2022/10/20 12:32:14;;;;;;;;;;;16.80;99.90;;;;;;5013582;28;19906;-67
2022/10/20 12:34:40;;;;;;;;;;;16.90;99.90;;;;;;5013652;28;19943;-67
2022/10/20 12:37:24;;;;;;;;;;;16.90;99.90;;;;;;5014369;28;19906;-68
2022/10/20 12:39:51;;;;;;;;;;;17.00;99.90;;;;;;4996392;28;20356;-68
2022/10/20 12:42:21;;;;;;;;;;;16.90;99.90;;;;;;5013682;28;19951;-67
2022/10/20 12:44:47;;;;;;;;;;;16.90;99.90;;;;;;5013458;28;19905;-67
2022/10/20 12:47:26;;;;;;;;;;;16.90;99.90;;;;;;5013153;28;19912;-67
2022/10/20 12:49:54;;;;;;;;;;;17.10;99.90;;;;;;5013388;28;20355;-68
2022/10/20 12:52:22;;;;;;;;;;;17.20;99.90;;;;;;5013549;28;20429;-69
2022/10/20 12:54:53;;;;;;;;;;;17.30;99.90;;;;;;5013338;28;20265;-68
2022/10/20 12:57:27;;;;;;;;;;;17.10;99.90;;;;;;4995897;28;19928;-68
2022/10/20 12:59:52;;;;;;;;;;;16.90;99.90;;;;;;5013540;28;20405;-68
2022/10/20 13:02:21;;;;;;;;;;;16.90;99.90;;;;;;5013368;28;19905;-67
2022/10/20 13:04:58;;;;;;;;;;;16.90;99.90;;;;;;5014540;28;19944;-68
2022/10/20 13:07:42;;;;;;;;;;;16.90;99.90;;;;;;5017623;28;19910;-68
2022/10/20 13:10:29;;;;;;;;;;;16.80;99.90;;;;;;4999387;28;19913;-68
2022/10/20 13:13:01;;;;;;;;;;;16.80;99.90;;;;;;4999322;28;20278;-68
2022/10/20 13:15:43;;;;;;;;;;;16.70;99.90;;;;;;5017192;28;19916;-68
2022/10/20 13:18:12;;;;;;;;;;;17.00;99.90;;;;;;5016453;28;20410;-68
2022/10/20 13:20:56;;;;;;;;;;;17.20;99.90;;;;;;5016597;28;19952;-68
2022/10/20 13:23:28;;;;;;;;;;;17.30;99.90;;;;;;4999209;28;19911;-68
2022/10/20 13:25:57;;;;;;;;;;;17.40;99.90;;;;;;5017033;28;19916;-68
2022/10/20 13:28:24;;;;;;;;;;;17.40;99.90;;;;;;5016643;28;19905;-68
2022/10/20 13:31:08;;;;;;;;;;;17.20;99.90;;;;;;5016268;28;19921;-68
2022/10/20 13:33:39;;;;;;;;;;;17.20;99.90;;;;;;5016188;28;19909;-68
2022/10/20 13:36:11;;;;;;;;;;;17.20;99.90;;;;;;5016312;28;19928;-68
2022/10/20 13:38:42;;;;;;;;;;;17.50;99.90;;;;;;4998796;28;19909;-69
2022/10/20 13:41:15;;;;;;;;;;;17.40;99.90;;;;;;5016532;28;20346;-68
2022/10/20 13:43:53;;;;;;;;;;;17.40;99.90;;;;;;5016885;28;19987;-69
2022/10/20 13:46:37;;;;;;;;;;;17.40;99.90;;;;;;4998828;28;20347;-68
2022/10/20 13:49:19;;;;;;;;;;;17.30;99.90;;;;;;5017031;28;19932;-68
2022/10/20 13:51:50;;;;;;;;;;;17.30;99.90;;;;;;5017779;28;20266;-68
2022/10/20 13:54:31;;;;;;;;;;;17.20;99.90;;;;;;5017052;28;19917;-67
2022/10/20 13:56:56;;;;;;;;;;;17.10;99.90;;;;;;4999136;28;19905;-68
2022/10/20 13:59:26;;;;;;;;;;;17.00;99.90;;;;;;4998653;28;19910;-68
2022/10/20 14:01:53;;;;;;;;;;;17.00;99.90;;;;;;5016023;28;19912;-69
2022/10/20 14:04:26;;;;;;;;;;;17.00;99.90;;;;;;5016444;28;19920;-68
2022/10/20 14:06:52;;;;;;;;;;;16.90;99.90;;;;;;4998571;28;19905;-68
2022/10/20 14:09:18;;;;;;;;;;;17.00;99.90;;;;;;5016172;28;20265;-68
2022/10/20 14:11:48;;;;;;;;;;;17.20;99.90;;;;;;5015927;28;20366;-68
2022/10/20 14:14:15;;;;;;;;;;;17.30;99.90;;;;;;5016950;28;19910;-69
2022/10/20 14:16:46;;;;;;;;;;;17.20;99.90;;;;;;5015171;28;19956;-68
2022/10/20 14:19:12;;;;;;;;;;;17.10;99.90;;;;;;5015539;28;19916;-69
2022/10/20 14:21:38;;;;;;;;;;;17.00;99.90;;;;;;5015476;28;19912;-67
2022/10/20 14:24:05;;;;;;;;;;;16.90;99.90;;;;;;5016296;28;19956;-70
2022/10/20 14:26:31;;;;;;;;;;;17.00;99.90;;;;;;5016355;28;19905;-71